SY-0004 weather

Marj al-Sultan Heliport (South)
Marj al-Sultan, Rif Dimashq Governorate, Syria

Public forecast

Using degrees Celsius for public forecast. Weather courtesy of forecast.io.

METAR (pilot weather report)

Closest report is Damascus International Airport, 5.0 nm (9.2 km) SSE. Retrieved 2019/08/23 06:00 UTC (34 minutes ago):

OSDI 230600Z 11004KT CAVOK 25/13 Q1012

TAF (pilot weather forecast)

Closest forecast is Damascus International Airport, 5.0 nm (9.2 km) SSE. Retrieved 2019/08/23 06:00 UTC (34 minutes ago):

TAF OSDI 230300Z 2306/2412 22012KT CAVOK